createdAt,value
2023-03-15T00:01:34.649Z,6.16
2023-03-15T00:04:02.288Z,6.07
2023-03-15T00:06:28.733Z,6.08
2023-03-15T00:08:55.144Z,6.08
2023-03-15T00:11:21.615Z,6.25
2023-03-15T00:13:48.126Z,6.25
2023-03-15T00:16:18.581Z,6.08
2023-03-15T00:18:48.219Z,6.08
2023-03-15T00:21:15.240Z,6.09
2023-03-15T00:23:41.706Z,5.97
2023-03-15T00:26:08.243Z,5.93
2023-03-15T00:28:34.688Z,5.85
2023-03-15T00:31:27.517Z,5.96
2023-03-15T00:33:54.131Z,5.96
2023-03-15T00:36:24.939Z,6.09
2023-03-15T00:38:53.797Z,6.08
2023-03-15T00:41:21.957Z,6.10
2023-03-15T00:43:48.778Z,6.02
2023-03-15T00:46:16.562Z,5.96
2023-03-15T00:48:43.047Z,5.83
2023-03-15T00:51:19.373Z,5.86
2023-03-15T00:53:46.397Z,5.70
2023-03-15T00:56:24.307Z,5.60
2023-03-15T00:58:52.909Z,5.30
2023-03-15T01:01:24.916Z,5.10
2023-03-15T01:03:51.709Z,5.02
2023-03-15T01:06:21.091Z,4.96
2023-03-15T01:08:48.163Z,5.00
2023-03-15T01:11:18.528Z,5.04
2023-03-15T01:13:45.131Z,5.12
2023-03-15T01:16:13.895Z,5.21
2023-03-15T01:18:41.260Z,5.21
2023-03-15T01:21:10.025Z,5.16
2023-03-15T01:23:36.873Z,5.21
2023-03-15T01:26:08.283Z,5.25
2023-03-15T01:28:37.885Z,5.32
2023-03-15T01:31:06.700Z,5.42
2023-03-15T01:33:33.261Z,5.32
2023-03-15T01:36:09.072Z,5.19
2023-03-15T01:38:38.557Z,5.09
2023-03-15T01:41:07.717Z,5.17
2023-03-15T01:43:37.518Z,5.17
2023-03-15T01:46:07.074Z,5.18
2023-03-15T01:48:59.656Z,5.18
2023-03-15T01:51:44.683Z,5.20
2023-03-15T01:54:39.017Z,5.14
2023-03-15T01:57:17.993Z,5.01
2023-03-15T01:59:51.538Z,4.85
2023-03-15T02:02:22.687Z,4.98
2023-03-15T02:05:01.134Z,4.95
2023-03-15T02:07:29.445Z,4.84
2023-03-15T02:10:05.648Z,4.91
2023-03-15T02:12:39.936Z,4.87
2023-03-15T02:15:09.473Z,4.95
2023-03-15T02:17:43.366Z,4.93
2023-03-15T02:20:28.237Z,4.93
2023-03-15T02:23:06.539Z,4.77
2023-03-15T02:25:44.974Z,4.77
2023-03-15T02:28:14.701Z,4.81
2023-03-15T02:30:41.281Z,4.77
2023-03-15T02:33:16.597Z,4.65
2023-03-15T02:35:43.050Z,4.61
2023-03-15T02:38:12.426Z,4.62
2023-03-15T02:40:39.698Z,4.53
2023-03-15T02:43:20.142Z,4.61
2023-03-15T02:45:47.799Z,4.61
2023-03-15T02:48:15.777Z,4.67
2023-03-15T02:50:42.478Z,4.52
2023-03-15T02:53:10.922Z,4.48
2023-03-15T02:55:37.438Z,4.49
2023-03-15T02:58:04.469Z,4.54
2023-03-15T03:00:31.058Z,4.70
2023-03-15T03:02:57.837Z,4.70
2023-03-15T03:05:24.380Z,4.72
2023-03-15T03:07:51.009Z,4.66
2023-03-15T03:10:19.527Z,4.57
2023-03-15T03:12:46.662Z,4.17
2023-03-15T03:15:13.299Z,4.04
2023-03-15T03:17:39.882Z,4.09
2023-03-15T03:20:12.718Z,4.01
2023-03-15T03:22:43.544Z,3.93
2023-03-15T03:25:11.240Z,3.89
2023-03-15T03:27:38.847Z,3.77
2023-03-15T03:30:11.552Z,3.66
2023-03-15T03:32:39.971Z,3.53
2023-03-15T03:35:07.621Z,3.53
2023-03-15T03:37:35.796Z,3.47
2023-03-15T03:40:06.865Z,3.61
2023-03-15T03:42:33.571Z,3.63
2023-03-15T03:45:00.040Z,3.66
2023-03-15T03:47:26.464Z,3.72
2023-03-15T03:49:52.897Z,3.67
2023-03-15T03:52:19.351Z,3.69
2023-03-15T03:54:45.810Z,3.79
2023-03-15T03:57:14.648Z,3.84
2023-03-15T03:59:41.068Z,3.76
2023-03-15T04:02:07.614Z,3.88
2023-03-15T04:04:34.202Z,4.01
2023-03-15T04:07:00.751Z,3.97
2023-03-15T04:09:28.050Z,4.05
2023-03-15T04:11:54.532Z,4.05
2023-03-15T04:14:21.026Z,4.03
2023-03-15T04:16:47.527Z,4.09
2023-03-15T04:19:16.241Z,4.08
2023-03-15T04:21:47.094Z,4.05
2023-03-15T04:24:16.093Z,4.13
2023-03-15T04:26:42.522Z,4.06
2023-03-15T04:29:10.544Z,4.17
2023-03-15T04:31:38.213Z,4.14
2023-03-15T04:34:05.142Z,4.07
2023-03-15T04:36:31.628Z,4.01
2023-03-15T04:39:05.924Z,4.30
2023-03-15T04:41:34.839Z,4.23
2023-03-15T04:44:05.344Z,4.25
2023-03-15T04:46:32.818Z,4.22
2023-03-15T04:49:00.897Z,4.20
2023-03-15T04:51:27.449Z,4.04
2023-03-15T04:53:53.886Z,4.08
2023-03-15T04:56:20.485Z,4.12
2023-03-15T04:58:50.231Z,4.04
2023-03-15T05:01:20.797Z,4.10
2023-03-15T05:03:48.197Z,3.98
2023-03-15T05:06:14.617Z,3.71
2023-03-15T05:08:41.068Z,3.82
2023-03-15T05:11:07.554Z,3.91
2023-03-15T05:13:34.043Z,3.87
2023-03-15T05:16:00.572Z,3.72
2023-03-15T05:18:27.145Z,3.73
2023-03-15T05:20:55.823Z,3.62
2023-03-15T05:23:23.618Z,3.71
2023-03-15T05:25:54.651Z,3.72
2023-03-15T05:28:25.443Z,3.62
2023-03-15T05:30:52.565Z,3.68
2023-03-15T05:33:22.391Z,3.67
2023-03-15T05:35:55.567Z,3.65
2023-03-15T05:38:26.450Z,3.56
2023-03-15T05:40:54.581Z,3.53
2023-03-15T05:43:21.591Z,3.42
2023-03-15T05:45:50.974Z,3.46
2023-03-15T05:48:17.510Z,3.43
2023-03-15T05:50:43.987Z,3.47
2023-03-15T05:53:10.834Z,3.35
2023-03-15T05:55:37.620Z,3.53
2023-03-15T05:58:04.382Z,3.57
2023-03-15T06:00:31.580Z,3.50
2023-03-15T06:02:58.124Z,3.42
2023-03-15T06:05:25.142Z,3.22
2023-03-15T06:07:54.629Z,3.48
2023-03-15T06:10:24.220Z,3.46
2023-03-15T06:12:52.204Z,3.59
2023-03-15T06:15:24.162Z,3.57
2023-03-15T06:17:53.363Z,3.49
2023-03-15T06:20:21.296Z,3.39
2023-03-15T06:22:48.304Z,3.53
2023-03-15T06:25:15.279Z,3.60
2023-03-15T06:27:41.770Z,3.57
2023-03-15T06:30:10.659Z,3.65
2023-03-15T06:32:37.226Z,3.75
2023-03-15T06:35:05.286Z,3.74
2023-03-15T06:37:35.385Z,3.85
2023-03-15T06:40:09.781Z,3.97
2023-03-15T06:42:36.802Z,4.01
2023-03-15T06:45:03.629Z,4.06
2023-03-15T06:47:30.198Z,4.15
2023-03-15T06:49:57.021Z,4.16
2023-03-15T06:52:24.086Z,4.22
2023-03-15T06:54:51.855Z,4.18
2023-03-15T06:57:21.629Z,4.24
2023-03-15T06:59:48.189Z,4.42
2023-03-15T07:02:22.665Z,4.62
2023-03-15T07:04:53.141Z,4.58
2023-03-15T07:07:23.329Z,4.70
2023-03-15T07:09:52.157Z,4.90
2023-03-15T07:12:22.040Z,5.03
2023-03-15T07:14:50.034Z,5.12
2023-03-15T07:17:16.933Z,5.31
2023-03-15T07:19:55.486Z,5.53
2023-03-15T07:22:23.020Z,5.67
2023-03-15T07:24:53.404Z,5.67
2023-03-15T07:27:23.538Z,5.77
2023-03-15T07:29:53.304Z,5.93
2023-03-15T07:32:22.944Z,6.01
2023-03-15T07:34:50.622Z,6.30
2023-03-15T07:37:17.479Z,6.50
2023-03-15T07:39:44.016Z,6.85
2023-03-15T07:42:10.810Z,7.16
2023-03-15T07:44:37.256Z,7.37
2023-03-15T07:47:03.925Z,7.68
2023-03-15T07:49:31.656Z,8.00
2023-03-15T07:51:58.179Z,8.34
2023-03-15T07:54:24.834Z,8.73
2023-03-15T07:56:51.506Z,9.05
2023-03-15T07:59:17.917Z,9.28
2023-03-15T08:01:44.413Z,9.30
2023-03-15T08:04:10.926Z,9.47
2023-03-15T08:06:37.400Z,9.56
2023-03-15T08:09:05.758Z,9.68
2023-03-15T08:11:33.242Z,9.73
2023-03-15T08:13:59.726Z,9.87
2023-03-15T08:16:26.260Z,10.22
2023-03-15T08:18:52.707Z,10.51
2023-03-15T08:21:21.635Z,10.75
2023-03-15T08:23:48.150Z,11.03
2023-03-15T08:26:15.216Z,11.17
2023-03-15T08:28:41.685Z,11.35
2023-03-15T08:31:09.682Z,11.69
2023-03-15T08:33:36.251Z,12.14
2023-03-15T08:36:02.940Z,12.47
2023-03-15T08:38:29.504Z,12.79
2023-03-15T08:40:57.494Z,13.13
2023-03-15T08:43:24.059Z,13.43
2023-03-15T08:46:01.093Z,13.50
2023-03-15T08:48:28.473Z,13.77
2023-03-15T08:50:55.131Z,13.95
2023-03-15T08:53:24.357Z,13.53
2023-03-15T08:55:53.627Z,13.52
2023-03-15T08:58:22.743Z,13.17
2023-03-15T09:00:53.793Z,13.95
2023-03-15T09:03:23.791Z,14.58
2023-03-15T09:05:56.144Z,15.11
2023-03-15T09:08:25.245Z,15.26
2023-03-15T09:10:56.642Z,15.60
2023-03-15T09:13:24.266Z,15.65
2023-03-15T09:15:54.823Z,15.84
2023-03-15T09:18:24.495Z,16.30
2023-03-15T09:20:53.672Z,16.98
2023-03-15T09:23:23.302Z,17.73
2023-03-15T09:25:51.572Z,18.15
2023-03-15T09:28:18.116Z,18.36
2023-03-15T09:30:44.621Z,18.59
2023-03-15T09:33:14.615Z,18.92
2023-03-15T09:35:41.946Z,18.61
2023-03-15T09:38:09.199Z,18.15
2023-03-15T09:40:45.435Z,17.94
2023-03-15T09:43:39.964Z,18.22
2023-03-15T09:46:35.310Z,17.91
2023-03-15T09:49:30.250Z,17.18
2023-03-15T09:52:28.397Z,16.02
2023-03-15T09:55:01.041Z,14.90
2023-03-15T09:57:43.545Z,14.55
2023-03-15T10:00:28.804Z,13.86
2023-03-15T10:03:01.838Z,13.38
2023-03-15T10:05:39.297Z,13.14
2023-03-15T10:08:12.801Z,12.99
2023-03-15T10:10:51.377Z,13.07
2023-03-15T10:13:30.447Z,13.51
2023-03-15T10:16:21.876Z,15.15
2023-03-15T10:19:17.665Z,16.53
2023-03-15T10:21:56.020Z,17.45
2023-03-15T10:24:30.890Z,18.22
2023-03-15T10:27:04.401Z,18.85
2023-03-15T10:29:31.165Z,19.48
2023-03-15T10:31:58.445Z,19.65
2023-03-15T10:34:26.884Z,18.74
2023-03-15T10:36:55.124Z,18.17
2023-03-15T10:39:22.871Z,18.66
2023-03-15T10:41:51.693Z,19.21
2023-03-15T10:44:27.059Z,18.87
2023-03-15T10:47:16.087Z,17.86
2023-03-15T10:49:52.614Z,17.61
2023-03-15T10:52:35.412Z,18.39
2023-03-15T10:55:27.782Z,19.34
2023-03-15T10:57:59.874Z,20.16
2023-03-15T11:00:34.426Z,19.41
2023-03-15T11:03:06.838Z,19.72
2023-03-15T11:05:50.400Z,20.08
2023-03-15T11:08:22.922Z,20.68
2023-03-15T11:10:58.183Z,20.86
2023-03-15T11:14:00.655Z,21.56
2023-03-15T11:16:35.462Z,21.62
2023-03-15T11:19:03.567Z,21.89
2023-03-15T11:21:35.327Z,22.20
2023-03-15T11:24:04.323Z,22.28
2023-03-15T11:26:36.319Z,21.57
2023-03-15T11:29:23.015Z,21.60
2023-03-15T11:31:51.747Z,21.96
2023-03-15T11:34:28.192Z,22.39
2023-03-15T11:37:07.933Z,22.16
2023-03-15T11:39:45.289Z,22.14
2023-03-15T11:42:33.758Z,21.95
2023-03-15T11:45:12.571Z,20.69
2023-03-15T11:48:04.120Z,20.18
2023-03-15T11:50:30.884Z,20.19
2023-03-15T11:53:03.507Z,20.31
2023-03-15T11:55:32.431Z,19.59
2023-03-15T11:58:31.318Z,19.17
2023-03-15T12:01:02.165Z,18.69
2023-03-15T12:03:43.326Z,17.82
2023-03-15T12:06:34.220Z,17.02
2023-03-15T12:09:01.992Z,17.82
2023-03-15T12:11:28.823Z,18.65
2023-03-15T12:13:58.505Z,19.38
2023-03-15T12:16:38.119Z,20.20
2023-03-15T12:19:23.182Z,20.63
2023-03-15T12:21:58.860Z,21.34
2023-03-15T12:24:31.575Z,21.48
2023-03-15T12:27:03.917Z,21.46
2023-03-15T12:29:32.652Z,22.11
2023-03-15T12:32:09.629Z,22.59
2023-03-15T12:34:53.221Z,22.59
2023-03-15T12:37:43.276Z,22.42
2023-03-15T12:40:15.784Z,20.98
2023-03-15T12:42:42.220Z,20.71
2023-03-15T12:45:17.987Z,21.14
2023-03-15T12:48:12.708Z,21.62
2023-03-15T12:50:50.881Z,22.26
2023-03-15T12:53:37.013Z,22.97
2023-03-15T12:56:18.611Z,22.95
2023-03-15T12:58:55.376Z,22.74
2023-03-15T13:01:25.990Z,22.45
2023-03-15T13:03:58.331Z,22.56
2023-03-15T13:07:02.760Z,22.24
2023-03-15T13:09:48.186Z,22.77
2023-03-15T13:12:41.688Z,22.86
2023-03-15T13:15:33.604Z,22.64
2023-03-15T13:18:17.643Z,23.27
2023-03-15T13:21:08.612Z,22.89
2023-03-15T13:23:35.428Z,22.81
2023-03-15T13:26:20.072Z,22.77
2023-03-15T13:29:07.786Z,22.54
2023-03-15T13:31:34.434Z,22.81
2023-03-15T13:34:13.362Z,22.25
2023-03-15T13:36:46.040Z,22.16
2023-03-15T13:39:21.848Z,22.18
2023-03-15T13:41:48.872Z,22.06
2023-03-15T13:44:25.838Z,22.50
2023-03-15T13:46:54.128Z,23.12
2023-03-15T13:49:22.041Z,23.37
2023-03-15T13:51:50.419Z,23.46
2023-03-15T13:54:18.815Z,23.47
2023-03-15T13:57:01.411Z,23.15
2023-03-15T13:59:34.500Z,23.01
2023-03-15T14:02:08.724Z,22.66
2023-03-15T14:04:37.735Z,22.60
2023-03-15T14:07:38.598Z,23.00
2023-03-15T14:10:29.554Z,22.79
2023-03-15T14:13:29.269Z,21.89
2023-03-15T14:16:08.076Z,20.93
2023-03-15T14:18:38.417Z,21.24
2023-03-15T14:21:14.492Z,21.59
2023-03-15T14:23:43.700Z,22.06
2023-03-15T14:26:29.983Z,21.99
2023-03-15T14:29:06.703Z,22.03
2023-03-15T14:31:39.661Z,22.15
2023-03-15T14:34:36.561Z,21.86
2023-03-15T14:37:09.803Z,21.78
2023-03-15T14:39:45.409Z,21.91
2023-03-15T14:42:12.176Z,21.84
2023-03-15T14:44:38.679Z,21.95
2023-03-15T14:47:16.949Z,22.12
2023-03-15T14:49:43.571Z,21.98
2023-03-15T14:52:13.340Z,21.84
2023-03-15T14:54:46.682Z,22.00
2023-03-15T14:57:13.252Z,22.23
2023-03-15T14:59:39.690Z,22.18
2023-03-15T15:02:06.521Z,21.42
2023-03-15T15:04:34.116Z,21.11
2023-03-15T15:07:03.050Z,21.08
2023-03-15T15:09:31.106Z,20.72
2023-03-15T15:12:00.224Z,20.34
2023-03-15T15:14:29.393Z,20.62
2023-03-15T15:16:58.715Z,20.74
2023-03-15T15:19:28.132Z,20.87
2023-03-15T15:21:56.322Z,21.11
2023-03-15T15:24:26.920Z,20.93
2023-03-15T15:26:53.458Z,20.93
2023-03-15T15:29:19.889Z,20.71
2023-03-15T15:31:46.457Z,20.49
2023-03-15T15:34:13.512Z,20.12
2023-03-15T15:36:42.465Z,19.65
2023-03-15T15:39:27.783Z,19.01
2023-03-15T15:41:54.325Z,18.86
2023-03-15T15:44:26.127Z,18.72
2023-03-15T15:46:53.442Z,18.71
2023-03-15T15:49:21.078Z,18.59
2023-03-15T15:51:52.108Z,18.55
2023-03-15T15:54:22.870Z,18.46
2023-03-15T15:56:52.177Z,18.06
2023-03-15T15:59:19.471Z,17.47
2023-03-15T16:01:59.657Z,17.14
2023-03-15T16:04:28.297Z,16.91
2023-03-15T16:07:02.123Z,16.49
2023-03-15T16:09:31.171Z,16.55
2023-03-15T16:12:01.308Z,16.57
2023-03-15T16:14:27.905Z,16.58
2023-03-15T16:16:54.446Z,16.32
2023-03-15T16:19:21.609Z,15.98
2023-03-15T16:21:51.714Z,15.89
2023-03-15T16:24:35.369Z,15.71
2023-03-15T16:27:09.253Z,15.79
2023-03-15T16:29:39.368Z,15.79
2023-03-15T16:32:16.822Z,15.84
2023-03-15T16:34:46.922Z,15.69
2023-03-15T16:37:21.819Z,15.68
2023-03-15T16:39:53.086Z,15.32
2023-03-15T16:42:21.077Z,15.27
2023-03-15T16:44:48.240Z,15.32
2023-03-15T16:47:15.038Z,15.15
2023-03-15T16:49:41.553Z,15.16
2023-03-15T16:52:10.168Z,14.86
2023-03-15T16:54:41.296Z,14.65
2023-03-15T16:57:21.984Z,14.31
2023-03-15T16:59:49.270Z,14.13
2023-03-15T17:02:19.699Z,13.96
2023-03-15T17:04:46.558Z,13.93
2023-03-15T17:07:17.527Z,13.98
2023-03-15T17:09:46.992Z,13.77
2023-03-15T17:12:27.775Z,13.50
2023-03-15T17:14:58.729Z,13.24
2023-03-15T17:17:36.102Z,12.90
2023-03-15T17:20:06.334Z,12.90
2023-03-15T17:22:32.992Z,12.75
2023-03-15T17:25:00.069Z,12.48
2023-03-15T17:27:34.419Z,12.44
2023-03-15T17:30:00.883Z,12.24
2023-03-15T17:32:30.824Z,12.19
2023-03-15T17:35:00.142Z,12.07
2023-03-15T17:37:33.830Z,11.98
2023-03-15T17:40:01.098Z,11.83
2023-03-15T17:42:30.965Z,11.81
2023-03-15T17:45:01.048Z,11.63
2023-03-15T17:47:32.354Z,11.35
2023-03-15T17:50:01.958Z,11.32
2023-03-15T17:52:31.665Z,11.38
2023-03-15T17:55:01.731Z,11.38
2023-03-15T17:57:29.675Z,11.35
2023-03-15T17:59:56.174Z,11.34
2023-03-15T18:02:22.744Z,11.10
2023-03-15T18:04:49.230Z,10.99
2023-03-15T18:07:15.713Z,10.75
2023-03-15T18:09:42.132Z,10.68
2023-03-15T18:12:13.181Z,10.61
2023-03-15T18:14:40.833Z,10.63
2023-03-15T18:17:07.350Z,10.66
2023-03-15T18:19:33.997Z,10.55
2023-03-15T18:22:03.340Z,10.46
2023-03-15T18:24:34.400Z,10.39
2023-03-15T18:27:04.006Z,10.44
2023-03-15T18:29:33.493Z,10.36
2023-03-15T18:32:04.593Z,10.19
2023-03-15T18:34:34.099Z,10.04
2023-03-15T18:37:01.849Z,9.93
2023-03-15T18:39:28.384Z,9.96
2023-03-15T18:41:54.878Z,9.99
2023-03-15T18:44:21.843Z,10.00
2023-03-15T18:46:48.534Z,10.04
2023-03-15T18:49:15.076Z,10.12
2023-03-15T18:51:42.446Z,10.38
2023-03-15T18:54:08.942Z,10.43
2023-03-15T18:56:35.376Z,10.31
2023-03-15T18:59:04.867Z,10.21
2023-03-15T19:01:34.707Z,10.05
2023-03-15T19:04:04.609Z,9.96
2023-03-15T19:06:34.107Z,9.84
2023-03-15T19:09:01.145Z,9.78
2023-03-15T19:11:35.005Z,9.70
2023-03-15T19:14:02.649Z,9.61
2023-03-15T19:16:31.779Z,9.63
2023-03-15T19:18:58.721Z,9.51
2023-03-15T19:21:26.505Z,9.41
2023-03-15T19:23:53.143Z,9.32
2023-03-15T19:26:22.546Z,9.00
2023-03-15T19:28:48.995Z,8.88
2023-03-15T19:31:15.566Z,8.71
2023-03-15T19:33:42.151Z,8.65
2023-03-15T19:36:09.288Z,8.66
2023-03-15T19:38:35.992Z,8.65
2023-03-15T19:41:08.590Z,8.55
2023-03-15T19:43:38.199Z,8.60
2023-03-15T19:46:08.559Z,8.52
2023-03-15T19:48:38.276Z,8.56
2023-03-15T19:51:07.775Z,8.20
2023-03-15T19:53:37.241Z,8.04
2023-03-15T19:56:07.652Z,7.70
2023-03-15T19:58:37.455Z,7.86
2023-03-15T20:01:07.812Z,7.80
2023-03-15T20:03:38.624Z,7.76
2023-03-15T20:06:12.417Z,7.78
2023-03-15T20:08:40.013Z,7.77
2023-03-15T20:11:07.606Z,7.68
2023-03-15T20:13:37.001Z,7.48
2023-03-15T20:16:08.002Z,7.61
2023-03-15T20:18:38.673Z,7.56
2023-03-15T20:21:07.986Z,7.52
2023-03-15T20:23:37.814Z,7.58
2023-03-15T20:26:10.890Z,7.61
2023-03-15T20:28:39.208Z,7.53
2023-03-15T20:31:10.332Z,7.52
2023-03-15T20:33:37.099Z,7.57
2023-03-15T20:36:07.164Z,7.53
2023-03-15T20:38:39.770Z,7.79
2023-03-15T20:41:07.425Z,7.77
2023-03-15T20:43:37.441Z,7.36
2023-03-15T20:46:07.038Z,7.17
2023-03-15T20:48:36.113Z,7.19
2023-03-15T20:51:06.858Z,7.02
2023-03-15T20:53:35.792Z,7.09
2023-03-15T20:56:05.149Z,7.12
2023-03-15T20:58:31.984Z,7.11
2023-03-15T21:01:06.962Z,7.13
2023-03-15T21:03:35.430Z,7.02
2023-03-15T21:06:08.393Z,6.95
2023-03-15T21:08:39.012Z,6.81
2023-03-15T21:11:06.699Z,6.57
2023-03-15T21:13:36.737Z,6.51
2023-03-15T21:16:05.105Z,6.45
2023-03-15T21:18:32.944Z,6.57
2023-03-15T21:21:05.480Z,6.38
2023-03-15T21:23:32.429Z,6.56
2023-03-15T21:26:06.192Z,6.45
2023-03-15T21:28:34.430Z,6.34
2023-03-15T21:31:01.120Z,6.24
2023-03-15T21:33:30.096Z,6.29
2023-03-15T21:35:59.015Z,6.36
2023-03-15T21:38:27.097Z,6.37
2023-03-15T21:40:59.298Z,6.39
2023-03-15T21:43:27.581Z,6.64
2023-03-15T21:45:54.187Z,6.50
2023-03-15T21:48:20.801Z,6.59
2023-03-15T21:50:47.299Z,6.47
2023-03-15T21:53:13.861Z,6.35
2023-03-15T21:55:40.406Z,6.28
2023-03-15T21:58:10.625Z,6.31
2023-03-15T22:00:40.270Z,6.26
2023-03-15T22:03:10.221Z,6.30
2023-03-15T22:05:39.923Z,6.44
2023-03-15T22:08:09.766Z,6.20
2023-03-15T22:10:38.574Z,6.06
2023-03-15T22:13:05.393Z,5.82
2023-03-15T22:15:33.868Z,5.94
2023-03-15T22:18:00.515Z,6.08
2023-03-15T22:20:27.274Z,6.09
2023-03-15T22:22:53.886Z,6.01
2023-03-15T22:25:20.760Z,5.94
2023-03-15T22:27:56.162Z,5.80
2023-03-15T22:30:22.724Z,5.76
2023-03-15T22:32:49.228Z,5.80
2023-03-15T22:35:16.861Z,5.84
2023-03-15T22:37:44.128Z,5.93
2023-03-15T22:40:14.087Z,5.80
2023-03-15T22:42:41.640Z,5.73
2023-03-15T22:45:10.176Z,5.68
2023-03-15T22:47:37.117Z,5.39
2023-03-15T22:50:04.568Z,5.24
2023-03-15T22:52:31.048Z,5.18
2023-03-15T22:54:57.626Z,5.17
2023-03-15T22:57:24.165Z,5.11
2023-03-15T22:59:50.598Z,5.28
2023-03-15T23:02:17.125Z,5.38
2023-03-15T23:04:45.287Z,5.17
2023-03-15T23:07:12.419Z,5.27
2023-03-15T23:09:42.564Z,5.31
2023-03-15T23:12:12.461Z,5.36
2023-03-15T23:14:42.283Z,5.44
2023-03-15T23:17:12.782Z,5.54
2023-03-15T23:19:43.349Z,5.45
2023-03-15T23:22:13.039Z,5.39
2023-03-15T23:24:41.738Z,5.39
2023-03-15T23:27:10.990Z,5.47
2023-03-15T23:29:52.944Z,5.46
2023-03-15T23:32:19.953Z,5.53
2023-03-15T23:34:46.672Z,5.48
2023-03-15T23:37:15.213Z,5.44
2023-03-15T23:39:42.527Z,5.68
2023-03-15T23:42:13.265Z,5.71
2023-03-15T23:44:41.232Z,5.67
2023-03-15T23:47:07.937Z,5.64
2023-03-15T23:49:34.478Z,5.64
2023-03-15T23:52:05.791Z,5.68
2023-03-15T23:54:42.102Z,5.65
2023-03-15T23:57:12.693Z,5.71
2023-03-15T23:59:44.921Z,5.71
